| time (UTC) | temp F | wind direction | speed MPH | gust MPH | rain 1hr in | rain 24hr in | rain mn in | humidity % | barometer mb |
| 20260906220803 | 74 | 227 | 1.0 | 1.0 | 0.12 | 0.66 | 0.66 | 99 | 1012.8 |
| 20260906220258 | 74 | 187 | 0.0 | 0.0 | 0.07 | 0.65 | 0.65 | 99 | 1013.1 |
| 20260906215756 | 74 | 197 | 3.0 | 5.0 | 0.12 | 0.65 | 0.65 | 99 | 1012.8 |
| 20260906215251 | 74 | 243 | 4.0 | 5.0 | 0.12 | 0.64 | 0.64 | 99 | 1013.1 |
| 20260906214749 | 74 | 222 | 3.0 | 3.0 | 0.07 | 0.63 | 0.63 | 99 | 1013.5 |
| 20260906214245 | 75 | 229 | 6.0 | 7.0 | 0.00 | 0.62 | 0.62 | 99 | 1013.8 |
| 20260906213744 | 75 | 224 | 3.0 | 3.0 | 0.05 | 0.62 | 0.62 | 99 | 1013.8 |
| 20260906213243 | 75 | 253 | 10.0 | 11.0 | 0.12 | 0.62 | 0.62 | 99 | 1013.1 |
| 20260906212740 | 75 | 55 | 3.0 | 3.0 | 1.09 | 0.61 | 0.61 | 99 | 1012.5 |
| 20260906212237 | 75 | 53 | 9.0 | 11.0 | 2.69 | 0.60 | 0.60 | 99 | 1012.5 |
| 20260906211736 | 75 | 60 | 5.0 | 7.0 | 2.53 | 0.47 | 0.47 | 99 | 1012.5 |
| 20260906211231 | 77 | 66 | 4.0 | 6.0 | 1.13 | 0.19 | 0.19 | 98 | 1012.8 |
| 20260906210726 | 78 | 71 | 3.0 | 6.0 | 0.24 | 0.04 | 0.04 | 95 | 1012.8 |
| 20260906210221 | 79 | 26 | 8.0 | 11.0 | 0.00 | 0.00 | 0.00 | 94 | 1012.5 |
| 20260906205716 | 81 | 34 | 12.0 | 17.0 | 0.00 | 0.00 | 0.00 | 90 | 1012.5 |
| 20260906205213 | 84 | 68 | 7.0 | 11.0 | 0.00 | 0.00 | 0.00 | 83 | 1012.1 |
| 20260906204707 | 90 | 11 | 17.0 | 24.0 | 0.00 | 0.00 | 0.00 | 78 | 1011.8 |
| 20260906204207 | 91 | 225 | 4.0 | 5.0 | 0.00 | 0.00 | 0.00 | 70 | 1011.4 |
| 20260906203706 | 91 | 211 | 3.0 | 3.0 | 0.00 | 0.00 | 0.00 | 70 | 1011.8 |
| 20260906203201 | 92 | 255 | 6.0 | 7.0 | 0.00 | 0.00 | 0.00 | 71 | 1011.8 |
| 20260906202659 | 93 | 218 | 3.0 | 3.0 | 0.00 | 0.00 | 0.00 | 67 | 1011.8 |
| 20260906202157 | 93 | 262 | 3.0 | 3.0 | 0.00 | 0.00 | 0.00 | 67 | 1011.8 |
| 20260906201653 | 93 | 254 | 1.0 | 2.0 | 0.00 | 0.00 | 0.00 | 67 | 1011.8 |
| 20260906201151 | 92 | 249 | 5.0 | 6.0 | 0.00 | 0.00 | 0.00 | 68 | 1012.5 |
| 20260906200648 | 93 | 201 | 1.0 | 1.0 | 0.00 | 0.00 | 0.00 | 67 | 1011.8 |
| 20260906200144 | 94 | 209 | 2.0 | 2.0 | 0.00 | 0.00 | 0.00 | 67 | 1011.8 |
| 20260906195639 | 94 | 212 | 0.0 | 1.0 | 0.00 | 0.00 | 0.00 | 65 | 1011.8 |
| 20260906195135 | 95 | 212 | 5.0 | 6.0 | 0.00 | 0.00 | 0.00 | 64 | 1012.1 |
| 20260906194631 | 95 | 218 | 5.0 | 5.0 | 0.00 | 0.00 | 0.00 | 65 | 1012.1 |
| 20260906194126 | 95 | 219 | 0.0 | 1.0 | 0.00 | 0.00 | 0.00 | 64 | 1012.5 |
| 20260906193626 | 93 | 230 | 4.0 | 5.0 | 0.00 | 0.00 | 0.00 | 66 | 1012.5 |
| 20260906193122 | 94 | 191 | 3.0 | 5.0 | 0.00 | 0.00 | 0.00 | 67 | 1012.5 |
| 20260906192617 | 94 | 290 | 3.0 | 3.0 | 0.00 | 0.00 | 0.00 | 66 | 1012.5 |
| 20260906192116 | 94 | 266 | 1.0 | 2.0 | 0.00 | 0.00 | 0.00 | 66 | 1012.8 |
| 20260906191611 | 94 | 177 | 3.0 | 3.0 | 0.00 | 0.00 | 0.00 | 67 | 1012.8 |
| 20260906191110 | 94 | 302 | 1.0 | 1.0 | 0.00 | 0.00 | 0.00 | 66 | 1012.5 |
| 20260906190605 | 92 | 268 | 4.0 | 5.0 | 0.00 | 0.00 | 0.00 | 66 | 1012.8 |
| 20260906190059 | 92 | 222 | 2.0 | 2.0 | 0.00 | 0.00 | 0.00 | 69 | 1012.8 |
| 20260906185558 | 89 | 212 | 3.0 | 3.0 | 0.00 | 0.00 | 0.00 | 75 | 1013.1 |
| 20260906185057 | 87 | 203 | 4.0 | 5.0 | 0.00 | 0.00 | 0.00 | 78 | 1013.5 |
| 20260906184552 | 86 | 211 | 5.0 | 7.0 | 0.00 | 0.00 | 0.00 | 82 | 1013.5 |
| 20260906184048 | 86 | 214 | 7.0 | 9.0 | 0.00 | 0.00 | 0.00 | 84 | 1013.5 |
| 20260906183544 | 89 | 261 | 6.0 | 7.0 | 0.00 | 0.00 | 0.00 | 78 | 1013.5 |
| 20260906183040 | 92 | 309 | 2.0 | 2.0 | 0.00 | 0.00 | 0.00 | 70 | 1013.5 |
| 20260906182535 | 91 | 214 | 0.0 | 0.0 | 0.00 | 0.00 | 0.00 | 69 | 1013.5 |
| 20260906182031 | 91 | 212 | 2.0 | 2.0 | 0.00 | 0.00 | 0.00 | 70 | 1013.5 |
| 20260906181526 | 92 | 215 | 1.0 | 2.0 | 0.00 | 0.00 | 0.00 | 69 | 1013.5 |
| 20260906181022 | 92 | 67 | 1.0 | 1.0 | 0.00 | 0.00 | 0.00 | 69 | 1013.5 |
| 20260906180516 | 92 | 264 | 5.0 | 6.0 | 0.00 | 0.00 | 0.00 | 68 | 1013.8 |
| 20260906180015 | 93 | 228 | 4.0 | 7.0 | 0.00 | 0.00 | 0.00 | 67 | 1013.8 |
| 20260906175515 | 93 | 276 | 5.0 | 8.0 | 0.00 | 0.00 | 0.00 | 68 | 1013.8 |
| 20260906175009 | 93 | 217 | 7.0 | 8.0 | 0.00 | 0.00 | 0.00 | 68 | 1013.5 |
| 20260906174508 | 93 | 237 | 3.0 | 3.0 | 0.00 | 0.00 | 0.00 | 68 | 1013.5 |
| 20260906174003 | 93 | 271 | 1.0 | 2.0 | 0.00 | 0.00 | 0.00 | 66 | 1013.8 |
| 20260906173458 | 92 | 241 | 3.0 | 5.0 | 0.00 | 0.00 | 0.00 | 71 | 1013.8 |
| 20260906172957 | 93 | 211 | 5.0 | 5.0 | 0.00 | 0.00 | 0.00 | 70 | 1013.5 |
| 20260906172453 | 91 | 311 | 3.0 | 5.0 | 0.00 | 0.00 | 0.00 | 72 | 1013.8 |
| 20260906171948 | 91 | 251 | 4.0 | 5.0 | 0.00 | 0.00 | 0.00 | 71 | 1013.8 |
| 20260906171443 | 91 | 263 | 6.0 | 7.0 | 0.00 | 0.00 | 0.00 | 73 | 1014.2 |
| 20260906170939 | 91 | 249 | 7.0 | 8.0 | 0.00 | 0.00 | 0.00 | 70 | 1014.2 |
| 20260906170435 | 91 | 262 | 2.0 | 2.0 | 0.00 | 0.00 | 0.00 | 72 | 1014.2 |
| 20260906165932 | 91 | 250 | 8.0 | 10.0 | 0.00 | 0.00 | 0.00 | 72 | 1014.5 |
| 20260906165431 | 91 | 231 | 5.0 | 6.0 | 0.00 | 0.00 | 0.00 | 73 | 1014.2 |
| 20260906164926 | 91 | 243 | 5.0 | 6.0 | 0.00 | 0.00 | 0.00 | 72 | 1014.5 |
| 20260906164424 | 91 | 274 | 5.0 | 8.0 | 0.00 | 0.00 | 0.00 | 74 | 1014.5 |
| 20260906163921 | 91 | 272 | 2.0 | 2.0 | 0.00 | 0.00 | 0.00 | 74 | 1014.5 |
| 20260906163417 | 90 | 216 | 6.0 | 8.0 | 0.00 | 0.00 | 0.00 | 74 | 1014.5 |
| 20260906162914 | 90 | 213 | 2.0 | 3.0 | 0.00 | 0.00 | 0.00 | 73 | 1014.5 |
| 20260906162407 | 90 | 299 | 2.0 | 3.0 | 0.00 | 0.00 | 0.00 | 74 | 1014.5 |
| 20260906161903 | 90 | 249 | 4.0 | 5.0 | 0.00 | 0.00 | 0.00 | 75 | 1014.5 |
| 20260906161402 | 91 | 205 | 1.0 | 2.0 | 0.00 | 0.00 | 0.00 | 73 | 1014.8 |
| 20260906160901 | 89 | 260 | 2.0 | 3.0 | 0.00 | 0.00 | 0.00 | 77 | 1014.8 |
| 20260906160355 | 89 | 201 | 4.0 | 6.0 | 0.00 | 0.00 | 0.00 | 78 | 1014.8 |
| 20260906155853 | 90 | 252 | 3.0 | 5.0 | 0.00 | 0.00 | 0.00 | 76 | 1014.8 |
| 20260906155347 | 90 | 238 | 2.0 | 2.0 | 0.00 | 0.00 | 0.00 | 76 | 1014.8 |
| 20260906154844 | 90 | 268 | 5.0 | 7.0 | 0.00 | 0.00 | 0.00 | 75 | 1014.8 |
| 20260906154338 | 90 | 260 | 4.0 | 5.0 | 0.00 | 0.00 | 0.00 | 77 | 1015.2 |
| 20260906153836 | 89 | 244 | 5.0 | 7.0 | 0.00 | 0.00 | 0.00 | 76 | 1015.2 |
| 20260906153336 | 89 | 187 | 1.0 | 2.0 | 0.00 | 0.00 | 0.00 | 78 | 1015.2 |
| 20260906152831 | 90 | 224 | 5.0 | 7.0 | 0.00 | 0.00 | 0.00 | 76 | 1014.8 |
| 20260906152326 | 88 | 187 | 1.0 | 2.0 | 0.00 | 0.00 | 0.00 | 79 | 1015.2 |
| 20260906151825 | 89 | 328 | 2.0 | 3.0 | 0.00 | 0.00 | 0.00 | 78 | 1015.2 |
| 20260906151321 | 88 | 239 | 6.0 | 7.0 | 0.00 | 0.00 | 0.00 | 80 | 1014.8 |
| 20260906150817 | 88 | 286 | 4.0 | 6.0 | 0.00 | 0.00 | 0.00 | 79 | 1015.2 |
| 20260906150312 | 88 | 267 | 3.0 | 3.0 | 0.00 | 0.00 | 0.00 | 80 | 1015.2 |
| 20260906145811 | 88 | 246 | 7.0 | 8.0 | 0.00 | 0.00 | 0.00 | 80 | 1015.2 |
| 20260906145309 | 88 | 336 | 2.0 | 2.0 | 0.00 | 0.00 | 0.00 | 80 | 1015.2 |
| 20260906144805 | 88 | 268 | 3.0 | 3.0 | 0.00 | 0.00 | 0.00 | 80 | 1015.2 |
| 20260906144300 | 87 | 274 | 3.0 | 3.0 | 0.00 | 0.00 | 0.00 | 82 | 1015.2 |
| 20260906143759 | 87 | 251 | 5.0 | 6.0 | 0.00 | 0.00 | 0.00 | 83 | 1015.2 |
| 20260906143257 | 86 | 227 | 5.0 | 6.0 | 0.00 | 0.00 | 0.00 | 83 | 1015.2 |
| 20260906142756 | 86 | 237 | 4.0 | 5.0 | 0.00 | 0.00 | 0.00 | 84 | 1015.5 |
| 20260906142252 | 86 | 253 | 6.0 | 7.0 | 0.00 | 0.00 | 0.00 | 84 | 1015.2 |
| 20260906141750 | 86 | 250 | 2.0 | 2.0 | 0.00 | 0.00 | 0.00 | 84 | 1015.2 |
| 20260906141245 | 86 | 259 | 3.0 | 3.0 | 0.00 | 0.00 | 0.00 | 86 | 1015.2 |
| 20260906140744 | 86 | 213 | 3.0 | 3.0 | 0.00 | 0.00 | 0.00 | 86 | 1015.2 |
| 20260906140239 | 86 | 216 | 3.0 | 3.0 | 0.00 | 0.00 | 0.00 | 86 | 1015.2 |
| 20260906135736 | 85 | 257 | 4.0 | 5.0 | 0.00 | 0.00 | 0.00 | 88 | 1015.2 |
| 20260906135232 | 84 | 236 | 3.0 | 3.0 | 0.00 | 0.00 | 0.00 | 89 | 1014.8 |
| 20260906134728 | 84 | 279 | 2.0 | 3.0 | 0.00 | 0.00 | 0.00 | 88 | 1015.2 |
| 20260906134223 | 84 | 214 | 3.0 | 3.0 | 0.00 | 0.00 | 0.00 | 90 | 1015.2 |
| 20260906133718 | 85 | 255 | 4.0 | 6.0 | 0.00 | 0.00 | 0.00 | 89 | 1015.2 |
| 20260906133214 | 85 | 218 | 3.0 | 3.0 | 0.00 | 0.00 | 0.00 | 89 | 1015.2 |
| 20260906132709 | 84 | 344 | 0.0 | 0.0 | 0.00 | 0.00 | 0.00 | 90 | 1015.2 |
| 20260906132204 | 84 | 261 | 3.0 | 3.0 | 0.00 | 0.00 | 0.00 | 90 | 1015.2 |
| 20260906131700 | 83 | 318 | 3.0 | 3.0 | 0.00 | 0.00 | 0.00 | 91 | 1015.5 |
| 20260906131155 | 83 | 274 | 1.0 | 2.0 | 0.00 | 0.00 | 0.00 | 91 | 1015.5 |
| 20260906130650 | 83 | 225 | 3.0 | 3.0 | 0.00 | 0.00 | 0.00 | 92 | 1015.2 |
| 20260906130145 | 83 | 231 | 3.0 | 3.0 | 0.00 | 0.00 | 0.00 | 92 | 1015.2 |
| 20260906125643 | 82 | 252 | 1.0 | 1.0 | 0.00 | 0.00 | 0.00 | 92 | 1015.5 |
| 20260906125142 | 82 | 252 | 2.0 | 2.0 | 0.00 | 0.00 | 0.00 | 93 | 1015.2 |
| 20260906124637 | 83 | 252 | 0.0 | 0.0 | 0.00 | 0.00 | 0.00 | 92 | 1015.5 |
| 20260906124133 | 82 | 167 | 0.0 | 0.0 | 0.00 | 0.00 | 0.00 | 93 | 1015.5 |
| 20260906123632 | 81 | 170 | 1.0 | 1.0 | 0.00 | 0.00 | 0.00 | 95 | 1015.2 |
| 20260906123127 | 81 | 219 | 1.0 | 2.0 | 0.00 | 0.00 | 0.00 | 95 | 1015.5 |
| 20260906122626 | 80 | 218 | 0.0 | 0.0 | 0.00 | 0.00 | 0.00 | 95 | 1015.2 |
| 20260906122122 | 80 | 191 | 1.0 | 1.0 | 0.00 | 0.00 | 0.00 | 96 | 1015.2 |
| 20260906121618 | 80 | 229 | 2.0 | 2.0 | 0.00 | 0.00 | 0.00 | 96 | 1015.2 |
| 20260906121114 | 79 | 189 | 2.0 | 2.0 | 0.00 | 0.00 | 0.00 | 97 | 1014.8 |
| 20260906120609 | 79 | 220 | 0.0 | 0.0 | 0.00 | 0.00 | 0.00 | 97 | 1014.8 |
| 20260906120107 | 78 | 213 | 0.0 | 0.0 | 0.00 | 0.00 | 0.00 | 98 | 1015.2 |
| 20260906115601 | 78 | 213 | 0.0 | 0.0 | 0.00 | 0.00 | 0.00 | 99 | 1014.8 |
| 20260906115056 | 77 | 209 | 0.0 | 0.0 | 0.00 | 0.00 | 0.00 | 99 | 1014.8 |
| 20260906114550 | 77 | 209 | 0.0 | 0.0 | 0.00 | 0.00 | 0.00 | 99 | 1014.8 |
| 20260906114045 | 77 | 209 | 0.0 | 0.0 | 0.00 | 0.00 | 0.00 | 99 | 1014.8 |
| 20260906113544 | 77 | 211 | 0.0 | 0.0 | 0.00 | 0.00 | 0.00 | 99 | 1015.2 |
| 20260906113040 | 76 | 204 | 0.0 | 0.0 | 0.00 | 0.00 | 0.00 | 99 | 1014.8 |
| 20260906112534 | 76 | 204 | 0.0 | 0.0 | 0.00 | 0.00 | 0.00 | 99 | 1014.8 |
| 20260906112031 | 76 | 204 | 0.0 | 0.0 | 0.00 | 0.00 | 0.00 | 99 | 1014.8 |
| 20260906111530 | 76 | 204 | 0.0 | 0.0 | 0.00 | 0.00 | 0.00 | 99 | 1014.5 |
| 20260906111026 | 76 | 204 | 0.0 | 0.0 | 0.00 | 0.00 | 0.00 | 99 | 1014.8 |
| 20260906110525 | 76 | 204 | 0.0 | 0.0 | 0.00 | 0.00 | 0.00 | 99 | 1014.5 |
| 20260906110025 | 76 | 204 | 0.0 | 0.0 | 0.00 | 0.00 | 0.00 | 99 | 1014.5 |
| 20260906105520 | 76 | 204 | 0.0 | 0.0 | 0.00 | 0.00 | 0.00 | 99 | 1014.5 |
| 20260906105016 | 76 | 204 | 0.0 | 0.0 | 0.00 | 0.00 | 0.00 | 99 | 1014.5 |
| 20260906104514 | 76 | 204 | 0.0 | 0.0 | 0.00 | 0.00 | 0.00 | 99 | 1014.2 |
| 20260906104009 | 76 | 204 | 0.0 | 0.0 | 0.00 | 0.00 | 0.00 | 99 | 1014.2 |
| 20260906103507 | 76 | 204 | 0.0 | 0.0 | 0.00 | 0.00 | 0.00 | 99 | 1014.2 |
| 20260906103002 | 77 | 204 | 0.0 | 0.0 | 0.00 | 0.00 | 0.00 | 99 | 1014.2 |
| 20260906102457 | 77 | 204 | 0.0 | 0.0 | 0.00 | 0.00 | 0.00 | 99 | 1013.8 |
| 20260906101957 | 77 | 204 | 0.0 | 0.0 | 0.00 | 0.00 | 0.00 | 99 | 1013.5 |
| 20260906101452 | 77 | 209 | 0.0 | 0.0 | 0.00 | 0.00 | 0.00 | 99 | 1013.5 |
| 20260906100947 | 76 | 229 | 0.0 | 0.0 | 0.00 | 0.00 | 0.00 | 99 | 1013.5 |
| 20260906100442 | 76 | 225 | 0.0 | 0.0 | 0.00 | 0.00 | 0.00 | 99 | 1013.8 |
| 20260906095936 | 76 | 218 | 0.0 | 0.0 | 0.00 | 0.00 | 0.00 | 99 | 1013.5 |
| 20260906095431 | 76 | 218 | 0.0 | 0.0 | 0.00 | 0.00 | 0.00 | 99 | 1013.5 |
| 20260906094926 | 76 | 218 | 0.0 | 0.0 | 0.00 | 0.00 | 0.00 | 99 | 1013.8 |
| 20260906094420 | 76 | 218 | 0.0 | 0.0 | 0.00 | 0.00 | 0.00 | 99 | 1013.5 |
| 20260906093917 | 76 | 218 | 0.0 | 0.0 | 0.00 | 0.00 | 0.00 | 99 | 1013.5 |
| 20260906093413 | 76 | 218 | 0.0 | 0.0 | 0.00 | 0.00 | 0.00 | 99 | 1013.5 |
| 20260906092912 | 76 | 218 | 0.0 | 0.0 | 0.00 | 0.00 | 0.00 | 99 | 1013.5 |
| 20260906092407 | 76 | 218 | 0.0 | 0.0 | 0.00 | 0.00 | 0.00 | 99 | 1013.5 |
| 20260906091902 | 76 | 218 | 0.0 | 0.0 | 0.00 | 0.00 | 0.00 | 99 | 1013.5 |
| 20260906091358 | 76 | 218 | 0.0 | 0.0 | 0.00 | 0.00 | 0.00 | 99 | 1013.5 |
| 20260906090855 | 77 | 218 | 0.0 | 0.0 | 0.00 | 0.00 | 0.00 | 99 | 1013.5 |
| 20260906090354 | 77 | 218 | 0.0 | 0.0 | 0.00 | 0.00 | 0.00 | 99 | 1013.5 |
| 20260906085849 | 77 | 218 | 0.0 | 0.0 | 0.00 | 0.00 | 0.00 | 99 | 1013.1 |
| 20260906085348 | 78 | 219 | 0.0 | 0.0 | 0.00 | 0.00 | 0.00 | 98 | 1013.1 |
| 20260906084843 | 78 | 207 | 0.0 | 0.0 | 0.00 | 0.00 | 0.00 | 98 | 1013.1 |
| 20260906084342 | 78 | 205 | 1.0 | 1.0 | 0.00 | 0.00 | 0.00 | 98 | 1013.1 |
| 20260906083837 | 78 | 193 | 0.0 | 0.0 | 0.00 | 0.00 | 0.00 | 98 | 1013.1 |
| 20260906083332 | 78 | 193 | 0.0 | 0.0 | 0.00 | 0.00 | 0.00 | 98 | 1013.1 |
| 20260906082826 | 78 | 230 | 0.0 | 0.0 | 0.00 | 0.00 | 0.00 | 98 | 1013.1 |
| 20260906082321 | 78 | 198 | 0.0 | 0.0 | 0.00 | 0.00 | 0.00 | 97 | 1013.1 |
| 20260906081817 | 78 | 226 | 0.0 | 0.0 | 0.00 | 0.00 | 0.00 | 97 | 1013.1 |
| 20260906081313 | 78 | 221 | 0.0 | 0.0 | 0.00 | 0.00 | 0.00 | 97 | 1013.1 |
| 20260906080809 | 78 | 221 | 0.0 | 0.0 | 0.00 | 0.00 | 0.00 | 97 | 1013.1 |
| 20260906080305 | 78 | 217 | 1.0 | 2.0 | 0.00 | 0.00 | 0.00 | 97 | 1013.1 |
| 20260906075805 | 78 | 195 | 1.0 | 1.0 | 0.00 | 0.00 | 0.00 | 97 | 1012.8 |
| 20260906075306 | 79 | 222 | 3.0 | 3.0 | 0.00 | 0.00 | 0.00 | 96 | 1012.8 |
| 20260906074800 | 78 | 235 | 3.0 | 3.0 | 0.00 | 0.00 | 0.00 | 96 | 1012.8 |
| 20260906074259 | 78 | 257 | 3.0 | 3.0 | 0.00 | 0.00 | 0.00 | 96 | 1013.1 |
| 20260906073758 | 79 | 199 | 2.0 | 2.0 | 0.00 | 0.00 | 0.00 | 96 | 1013.1 |
| 20260906073253 | 79 | 210 | 3.0 | 3.0 | 0.00 | 0.00 | 0.00 | 96 | 1013.1 |
| 20260906072749 | 78 | 239 | 3.0 | 3.0 | 0.00 | 0.00 | 0.00 | 96 | 1012.8 |
| 20260906072245 | 78 | 205 | 3.0 | 3.0 | 0.00 | 0.00 | 0.00 | 96 | 1013.5 |
| 20260906071741 | 78 | 220 | 3.0 | 5.0 | 0.00 | 0.00 | 0.00 | 96 | 1013.5 |
| 20260906071241 | 78 | 223 | 2.0 | 2.0 | 0.00 | 0.00 | 0.00 | 96 | 1013.1 |
| 20260906070737 | 78 | 216 | 2.0 | 2.0 | 0.00 | 0.00 | 0.00 | 96 | 1013.5 |
| 20260906070233 | 78 | 232 | 1.0 | 2.0 | 0.00 | 0.00 | 0.00 | 96 | 1013.5 |
| 20260906065732 | 79 | 212 | 1.0 | 1.0 | 0.00 | 0.00 | 0.00 | 96 | 1013.5 |
| 20260906065227 | 79 | 222 | 2.0 | 2.0 | 0.00 | 0.00 | 0.00 | 95 | 1013.5 |
| 20260906064723 | 79 | 225 | 1.0 | 2.0 | 0.00 | 0.00 | 0.00 | 95 | 1013.5 |
| 20260906064219 | 79 | 222 | 1.0 | 2.0 | 0.00 | 0.00 | 0.00 | 94 | 1013.8 |
| 20260906063714 | 79 | 253 | 4.0 | 5.0 | 0.00 | 0.00 | 0.00 | 94 | 1013.8 |
| 20260906063209 | 79 | 236 | 4.0 | 6.0 | 0.00 | 0.00 | 0.00 | 94 | 1013.8 |
| 20260906062705 | 79 | 197 | 5.0 | 6.0 | 0.00 | 0.00 | 0.00 | 94 | 1013.8 |
| 20260906062203 | 79 | 212 | 2.0 | 3.0 | 0.00 | 0.00 | 0.00 | 95 | 1014.2 |
| 20260906061659 | 79 | 220 | 1.0 | 1.0 | 0.00 | 0.00 | 0.00 | 95 | 1014.2 |
| 20260906061155 | 79 | 200 | 2.0 | 2.0 | 0.00 | 0.00 | 0.00 | 95 | 1014.2 |
| 20260906060651 | 79 | 222 | 2.0 | 2.0 | 0.00 | 0.00 | 0.00 | 94 | 1014.2 |
| 20260906060148 | 79 | 201 | 1.0 | 2.0 | 0.00 | 0.00 | 0.00 | 94 | 1014.5 |
| 20260906055643 | 79 | 181 | 1.0 | 1.0 | 0.00 | 0.00 | 0.00 | 94 | 1014.5 |
| 20260906055138 | 80 | 200 | 1.0 | 1.0 | 0.00 | 0.00 | 0.00 | 94 | 1014.5 |
| 20260906054634 | 79 | 219 | 2.0 | 2.0 | 0.00 | 0.00 | 0.00 | 94 | 1014.5 |
| 20260906054128 | 80 | 191 | 1.0 | 1.0 | 0.00 | 0.00 | 0.00 | 94 | 1014.2 |
| 20260906053625 | 80 | 227 | 2.0 | 2.0 | 0.00 | 0.00 | 0.00 | 94 | 1014.5 |
| 20260906053120 | 80 | 218 | 1.0 | 2.0 | 0.00 | 0.00 | 0.00 | 94 | 1014.5 |
| 20260906052615 | 79 | 196 | 1.0 | 1.0 | 0.00 | 0.00 | 0.00 | 94 | 1014.5 |
| 20260906052107 | 79 | 191 | 1.0 | 2.0 | 0.00 | 0.00 | 0.00 | 94 | 1014.8 |
| 20260906051602 | 79 | 245 | 1.0 | 2.0 | 0.00 | 0.00 | 0.00 | 94 | 1014.8 |
| 20260906051057 | 79 | 216 | 1.0 | 1.0 | 0.00 | 0.00 | 0.00 | 93 | 1014.8 |
| 20260906050557 | 79 | 203 | 1.0 | 1.0 | 0.00 | 0.00 | 0.00 | 93 | 1015.2 |
| 20260906050048 | 80 | 204 | 1.0 | 1.0 | 0.00 | 0.00 | 0.00 | 93 | 1014.8 |
| 20260906045546 | 80 | 196 | 1.0 | 1.0 | 0.00 | 0.00 | 0.00 | 93 | 1014.8 |
| 20260906045042 | 80 | 192 | 1.0 | 1.0 | 0.00 | 0.00 | 0.00 | 92 | 1015.2 |
| 20260906044537 | 80 | 209 | 1.0 | 1.0 | 0.00 | 0.00 | 0.00 | 92 | 1014.8 |
| 20260906044032 | 80 | 216 | 3.0 | 3.0 | 0.00 | 0.00 | 0.00 | 92 | 1014.8 |
| 20260906043528 | 80 | 211 | 2.0 | 2.0 | 0.00 | 0.00 | 0.00 | 92 | 1014.8 |
| 20260906043024 | 80 | 197 | 2.0 | 2.0 | 0.00 | 0.00 | 0.00 | 91 | 1014.8 |
| 20260906042522 | 80 | 213 | 5.0 | 5.0 | 0.00 | 0.00 | 0.00 | 91 | 1014.8 |
| 20260906042018 | 80 | 175 | 2.0 | 2.0 | 0.00 | 0.00 | 0.00 | 90 | 1015.2 |
| 20260906041514 | 80 | 236 | 3.0 | 3.0 | 0.00 | 0.00 | 0.00 | 90 | 1014.8 |
| 20260906041013 | 80 | 178 | 2.0 | 2.0 | 0.00 | 0.00 | 0.00 | 90 | 1014.8 |
| 20260906040509 | 80 | 210 | 3.0 | 3.0 | 0.00 | 0.00 | 0.00 | 90 | 1014.8 |
| 20260906040004 | 80 | 206 | 2.0 | 3.0 | 0.00 | 0.00 | 0.00 | 90 | 1015.2 |
| 20260906035459 | 80 | 200 | 1.0 | 2.0 | 0.00 | 0.00 | 0.00 | 89 | 1015.2 |
| 20260906034955 | 80 | 200 | 1.0 | 2.0 | 0.00 | 0.00 | 0.00 | 89 | 1015.2 |
| 20260906034454 | 80 | 195 | 2.0 | 3.0 | 0.00 | 0.00 | 0.00 | 89 | 1015.2 |
| 20260906033950 | 80 | 170 | 2.0 | 2.0 | 0.00 | 0.00 | 0.00 | 88 | 1015.2 |
| 20260906033444 | 80 | 199 | 3.0 | 3.0 | 0.00 | 0.00 | 0.00 | 88 | 1015.2 |
| 20260906032940 | 80 | 220 | 4.0 | 6.0 | 0.00 | 0.00 | 0.00 | 88 | 1014.8 |
| 20260906032436 | 80 | 167 | 2.0 | 2.0 | 0.00 | 0.00 | 0.00 | 88 | 1015.2 |
| 20260906031930 | 80 | 166 | 1.0 | 1.0 | 0.00 | 0.00 | 0.00 | 88 | 1015.2 |
| 20260906031426 | 80 | 189 | 2.0 | 3.0 | 0.00 | 0.00 | 0.00 | 89 | 1015.2 |
| 20260906030921 | 80 | 204 | 2.0 | 3.0 | 0.00 | 0.00 | 0.00 | 88 | 1015.2 |
| 20260906030416 | 80 | 193 | 1.0 | 2.0 | 0.00 | 0.00 | 0.00 | 89 | 1015.2 |
| 20260906025910 | 80 | 192 | 2.0 | 2.0 | 0.00 | 0.00 | 0.00 | 89 | 1015.2 |
| 20260906025405 | 80 | 146 | 2.0 | 2.0 | 0.00 | 0.00 | 0.00 | 89 | 1015.2 |
| 20260906024904 | 80 | 130 | 2.0 | 2.0 | 0.00 | 0.00 | 0.00 | 89 | 1015.2 |
| 20260906024403 | 80 | 189 | 1.0 | 2.0 | 0.00 | 0.00 | 0.00 | 88 | 1015.2 |
| 20260906023858 | 80 | 184 | 1.0 | 1.0 | 0.00 | 0.00 | 0.00 | 89 | 1015.2 |
| 20260906023354 | 80 | 190 | 1.0 | 1.0 | 0.00 | 0.00 | 0.00 | 88 | 1015.2 |
| 20260906022848 | 80 | 200 | 1.0 | 1.0 | 0.00 | 0.00 | 0.00 | 88 | 1015.2 |
| 20260906022344 | 80 | 159 | 0.0 | 1.0 | 0.00 | 0.00 | 0.00 | 89 | 1015.2 |
| 20260906021840 | 80 | 165 | 2.0 | 2.0 | 0.00 | 0.00 | 0.00 | 88 | 1015.2 |
| 20260906021339 | 80 | 173 | 3.0 | 3.0 | 0.00 | 0.00 | 0.00 | 89 | 1015.2 |
| 20260906020833 | 80 | 190 | 3.0 | 3.0 | 0.00 | 0.00 | 0.00 | 89 | 1015.2 |
| 20260906020327 | 80 | 182 | 1.0 | 1.0 | 0.00 | 0.00 | 0.00 | 90 | 1015.2 |
| 20260906015822 | 80 | 210 | 2.0 | 2.0 | 0.00 | 0.00 | 0.00 | 90 | 1015.2 |
| 20260906015321 | 80 | 205 | 1.0 | 1.0 | 0.00 | 0.00 | 0.00 | 90 | 1015.2 |
| 20260906014820 | 80 | 189 | 0.0 | 0.0 | 0.00 | 0.00 | 0.00 | 90 | 1015.2 |
| 20260906014316 | 80 | 187 | 3.0 | 5.0 | 0.00 | 0.00 | 0.00 | 90 | 1015.2 |
| 20260906013812 | 80 | 209 | 3.0 | 3.0 | 0.00 | 0.00 | 0.00 | 90 | 1015.2 |
| 20260906013307 | 80 | 197 | 4.0 | 5.0 | 0.00 | 0.00 | 0.00 | 90 | 1015.2 |
| 20260906012803 | 80 | 176 | 5.0 | 6.0 | 0.00 | 0.00 | 0.00 | 90 | 1014.8 |
| 20260906012257 | 80 | 163 | 4.0 | 5.0 | 0.00 | 0.00 | 0.00 | 91 | 1015.2 |
| 20260906011752 | 80 | 183 | 4.0 | 6.0 | 0.00 | 0.00 | 0.00 | 91 | 1014.8 |
| 20260906011252 | 80 | 179 | 3.0 | 5.0 | 0.00 | 0.00 | 0.00 | 92 | 1015.2 |
| 20260906010748 | 80 | 184 | 3.0 | 5.0 | 0.00 | 0.00 | 0.00 | 91 | 1015.2 |
| 20260906010244 | 81 | 212 | 2.0 | 2.0 | 0.00 | 0.00 | 0.00 | 90 | 1014.5 |
| 20260906005738 | 81 | 186 | 3.0 | 3.0 | 0.00 | 0.00 | 0.00 | 89 | 1014.8 |
| 20260906005232 | 81 | 148 | 1.0 | 2.0 | 0.00 | 0.00 | 0.00 | 88 | 1014.5 |
| 20260906004732 | 82 | 193 | 4.0 | 5.0 | 0.00 | 0.00 | 0.00 | 89 | 1014.5 |
| 20260906004227 | 82 | 191 | 1.0 | 1.0 | 0.00 | 0.00 | 0.00 | 89 | 1014.5 |
| 20260906003722 | 82 | 186 | 3.0 | 3.0 | 0.00 | 0.00 | 0.00 | 88 | 1014.8 |
| 20260906003217 | 82 | 191 | 2.0 | 3.0 | 0.00 | 0.00 | 0.00 | 87 | 1014.5 |
| 20260906002717 | 82 | 109 | 2.0 | 3.0 | 0.00 | 0.00 | 0.00 | 86 | 1014.8 |
| 20260906002212 | 82 | 193 | 2.0 | 2.0 | 0.00 | 0.00 | 0.00 | 86 | 1014.5 |
| 20260906001708 | 82 | 99 | 1.0 | 2.0 | 0.00 | 0.00 | 0.00 | 86 | 1014.5 |
| 20260906001207 | 82 | 169 | 1.0 | 2.0 | 0.00 | 0.00 | 0.00 | 86 | 1014.5 |
| 20260906000703 | 82 | 124 | 1.0 | 2.0 | 0.00 | 0.00 | 0.00 | 86 | 1014.5 |
| 20260906000158 | 82 | 128 | 0.0 | 0.0 | 0.00 | 0.00 | 0.00 | 86 | 1014.5 |
| 20260905235657 | 82 | 160 | 0.0 | 1.0 | 0.00 | 0.00 | 0.00 | 85 | 1014.5 |
| 20260905235152 | 82 | 79 | 3.0 | 5.0 | 0.00 | 0.00 | 0.00 | 85 | 1014.2 |
| 20260905234647 | 83 | 68 | 2.0 | 2.0 | 0.00 | 0.00 | 0.00 | 85 | 1014.2 |
| 20260905234143 | 83 | 35 | 2.0 | 3.0 | 0.00 | 0.00 | 0.00 | 84 | 1014.5 |
| 20260905233638 | 83 | 59 | 1.0 | 1.0 | 0.00 | 0.00 | 0.00 | 85 | 1014.5 |
| 20260905233137 | 84 | 95 | 5.0 | 7.0 | 0.00 | 0.00 | 0.00 | 84 | 1014.5 |
| 20260905232633 | 84 | 114 | 1.0 | 2.0 | 0.00 | 0.00 | 0.00 | 84 | 1014.5 |
| 20260905232128 | 84 | 48 | 2.0 | 3.0 | 0.00 | 0.00 | 0.00 | 85 | 1014.5 |
| 20260905231623 | 84 | 39 | 4.0 | 5.0 | 0.00 | 0.00 | 0.00 | 85 | 1014.5 |
| 20260905231120 | 85 | 41 | 3.0 | 3.0 | 0.00 | 0.00 | 0.00 | 85 | 1014.5 |
| 20260905230615 | 84 | 79 | 2.0 | 2.0 | 0.00 | 0.00 | 0.00 | 85 | 1014.5 |
| 20260905230112 | 85 | 30 | 3.0 | 3.0 | 0.00 | 0.00 | 0.00 | 83 | 1014.5 |
| 20260905225607 | 85 | 50 | 2.0 | 2.0 | 0.00 | 0.00 | 0.00 | 84 | 1014.5 |
| 20260905225101 | 85 | 48 | 1.0 | 2.0 | 0.00 | 0.00 | 0.00 | 84 | 1014.5 |
| 20260905224556 | 85 | 35 | 2.0 | 3.0 | 0.00 | 0.00 | 0.00 | 82 | 1014.5 |
| 20260905224055 | 86 | 109 | 1.0 | 2.0 | 0.00 | 0.00 | 0.00 | 81 | 1014.5 |
| 20260905223553 | 86 | 36 | 2.0 | 2.0 | 0.00 | 0.00 | 0.00 | 81 | 1014.5 |
| 20260905223048 | 86 | 20 | 4.0 | 5.0 | 0.00 | 0.00 | 0.00 | 79 | 1014.5 |
| 20260905222543 | 86 | 48 | 4.0 | 6.0 | 0.00 | 0.00 | 0.00 | 77 | 1014.5 |
| 20260905222038 | 87 | 46 | 4.0 | 5.0 | 0.00 | 0.00 | 0.00 | 75 | 1014.5 |
| 20260905221534 | 89 | 46 | 4.0 | 5.0 | 0.00 | 0.00 | 0.00 | 74 | 1014.2 |
| 20260905221030 | 89 | 218 | 1.0 | 1.0 | 0.00 | 0.00 | 0.00 | 72 | 1014.2 |